createdAt,value
2023-05-09T00:00:51.368Z,20.20
2023-05-09T00:03:18.140Z,20.40
2023-05-09T00:05:47.129Z,20.20
2023-05-09T00:08:14.022Z,20.10
2023-05-09T00:10:40.918Z,20.00
2023-05-09T00:13:08.157Z,20.20
2023-05-09T00:15:35.791Z,20.20
2023-05-09T00:18:02.587Z,20.20
2023-05-09T00:20:29.428Z,20.10
2023-05-09T00:22:57.280Z,20.20
2023-05-09T00:25:24.035Z,20.10
2023-05-09T00:27:51.092Z,20.10
2023-05-09T00:30:18.215Z,20.10
2023-05-09T00:32:45.255Z,20.00
2023-05-09T00:35:12.284Z,20.10
2023-05-09T00:37:39.210Z,20.10
2023-05-09T00:40:06.886Z,20.10
2023-05-09T00:42:33.812Z,20.20
2023-05-09T00:45:00.824Z,20.10
2023-05-09T00:47:28.257Z,20.00
2023-05-09T00:49:56.902Z,20.00
2023-05-09T00:52:26.987Z,20.00
2023-05-09T00:54:54.273Z,20.00
2023-05-09T00:57:21.600Z,20.00
2023-05-09T00:59:49.067Z,20.00
2023-05-09T01:02:16.825Z,20.10
2023-05-09T01:04:45.020Z,20.00
2023-05-09T01:07:12.181Z,20.00
2023-05-09T01:10:09.636Z,20.00
2023-05-09T01:12:48.812Z,20.00
2023-05-09T01:15:21.681Z,20.00
2023-05-09T01:17:51.518Z,20.00
2023-05-09T01:20:24.961Z,20.10
2023-05-09T01:22:55.809Z,20.00
2023-05-09T01:25:31.833Z,20.00
2023-05-09T01:28:05.895Z,20.00
2023-05-09T01:30:34.613Z,20.00
2023-05-09T01:33:05.529Z,20.00
2023-05-09T01:35:33.374Z,20.00
2023-05-09T01:38:01.460Z,20.00
2023-05-09T01:40:30.620Z,20.00
2023-05-09T01:43:03.913Z,20.00
2023-05-09T01:45:31.399Z,20.00
2023-05-09T01:47:58.676Z,20.00
2023-05-09T01:50:26.957Z,20.10
2023-05-09T01:52:56.218Z,20.00
2023-05-09T01:55:25.728Z,20.00
2023-05-09T01:57:53.627Z,20.00
2023-05-09T02:00:21.994Z,20.00
2023-05-09T02:02:49.441Z,20.00
2023-05-09T02:05:17.772Z,19.90
2023-05-09T02:07:46.420Z,20.00
2023-05-09T02:10:13.496Z,20.00
2023-05-09T02:12:40.452Z,20.00
2023-05-09T02:15:07.762Z,20.00
2023-05-09T02:17:34.678Z,20.00
2023-05-09T02:20:01.710Z,20.00
2023-05-09T02:22:28.566Z,19.90
2023-05-09T02:24:55.467Z,19.90
2023-05-09T02:27:22.698Z,20.00
2023-05-09T02:29:51.781Z,19.90
2023-05-09T02:32:23.345Z,19.90
2023-05-09T02:34:52.228Z,19.90
2023-05-09T02:37:19.479Z,19.90
2023-05-09T02:39:46.572Z,19.80
2023-05-09T02:42:14.753Z,19.90
2023-05-09T02:44:41.733Z,19.90
2023-05-09T02:47:08.757Z,19.90
2023-05-09T02:49:35.665Z,19.90
2023-05-09T02:52:02.520Z,19.80
2023-05-09T02:54:29.804Z,19.70
2023-05-09T02:56:56.753Z,19.70
2023-05-09T02:59:23.560Z,19.80
2023-05-09T03:01:50.756Z,19.80
2023-05-09T03:04:18.159Z,19.80
2023-05-09T03:06:45.097Z,19.70
2023-05-09T03:09:11.994Z,19.80
2023-05-09T03:11:38.861Z,19.70
2023-05-09T03:14:06.283Z,19.70
2023-05-09T03:16:33.208Z,19.80
2023-05-09T03:19:00.061Z,19.70
2023-05-09T03:21:26.917Z,19.70
2023-05-09T03:23:53.786Z,19.70
2023-05-09T03:26:21.680Z,19.70
2023-05-09T03:28:49.027Z,19.60
2023-05-09T03:31:16.048Z,19.60
2023-05-09T03:33:43.004Z,19.60
2023-05-09T03:36:09.880Z,19.60
2023-05-09T03:38:36.824Z,19.60
2023-05-09T03:41:04.048Z,19.60
2023-05-09T03:43:30.749Z,19.60
2023-05-09T03:45:57.737Z,19.50
2023-05-09T03:48:24.579Z,19.50
2023-05-09T03:50:51.465Z,19.60
2023-05-09T03:53:18.527Z,19.50
2023-05-09T03:55:45.545Z,19.50
2023-05-09T03:58:12.801Z,19.50
2023-05-09T04:00:40.538Z,19.40
2023-05-09T04:03:07.709Z,19.40
2023-05-09T04:05:35.410Z,19.40
2023-05-09T04:08:02.718Z,19.40
2023-05-09T04:10:30.448Z,19.40
2023-05-09T04:12:57.338Z,19.40
2023-05-09T04:15:24.129Z,19.40
2023-05-09T04:17:50.910Z,19.30
2023-05-09T04:20:17.731Z,19.40
2023-05-09T04:22:46.828Z,19.40
2023-05-09T04:25:14.875Z,19.40
2023-05-09T04:27:41.813Z,19.40
2023-05-09T04:30:09.518Z,19.60
2023-05-09T04:32:36.998Z,19.40
2023-05-09T04:35:04.418Z,19.30
2023-05-09T04:37:32.821Z,19.30
2023-05-09T04:39:59.625Z,19.40
2023-05-09T04:42:26.306Z,19.50
2023-05-09T04:44:57.566Z,19.40
2023-05-09T04:47:24.450Z,19.50
2023-05-09T04:49:51.246Z,19.30
2023-05-09T04:52:18.140Z,19.40
2023-05-09T04:54:44.961Z,19.30
2023-05-09T04:57:18.045Z,19.30
2023-05-09T04:59:45.942Z,19.20
2023-05-09T05:02:13.097Z,19.20
2023-05-09T05:04:40.063Z,19.20
2023-05-09T05:07:07.070Z,19.30
2023-05-09T05:09:33.824Z,19.30
2023-05-09T05:12:02.881Z,19.40
2023-05-09T05:14:31.295Z,19.40
2023-05-09T05:16:57.993Z,19.40
2023-05-09T05:19:24.776Z,19.30
2023-05-09T05:21:51.451Z,19.30
2023-05-09T05:24:18.144Z,19.30
2023-05-09T05:26:45.595Z,19.30
2023-05-09T05:29:12.572Z,19.30
2023-05-09T05:31:39.389Z,19.30
2023-05-09T05:34:06.466Z,19.20
2023-05-09T05:36:33.620Z,19.40
2023-05-09T05:39:00.336Z,19.50
2023-05-09T05:41:27.191Z,19.40
2023-05-09T05:43:54.570Z,19.40
2023-05-09T05:46:21.506Z,19.40
2023-05-09T05:48:48.362Z,19.30
2023-05-09T05:51:15.325Z,19.40
2023-05-09T05:53:42.406Z,19.30
2023-05-09T05:56:09.111Z,19.30
2023-05-09T05:58:35.862Z,19.20
2023-05-09T06:01:02.576Z,19.40
2023-05-09T06:03:29.485Z,19.40
2023-05-09T06:05:56.730Z,19.30
2023-05-09T06:08:23.593Z,19.40
2023-05-09T06:10:50.338Z,19.40
2023-05-09T06:13:17.163Z,19.40
2023-05-09T06:15:44.031Z,19.40
2023-05-09T06:18:10.928Z,19.40
2023-05-09T06:20:37.786Z,19.40
2023-05-09T06:23:04.560Z,19.40
2023-05-09T06:25:31.258Z,19.40
2023-05-09T06:27:58.032Z,19.40
2023-05-09T06:30:26.678Z,19.40
2023-05-09T06:32:54.612Z,19.40
2023-05-09T06:35:21.906Z,19.50
2023-05-09T06:37:49.226Z,19.40
2023-05-09T06:40:16.495Z,19.60
2023-05-09T06:42:43.349Z,19.70
2023-05-09T06:45:10.376Z,19.70
2023-05-09T06:47:37.152Z,19.70
2023-05-09T06:50:04.059Z,19.70
2023-05-09T06:52:30.804Z,19.80
2023-05-09T06:54:57.507Z,19.80
2023-05-09T06:57:24.397Z,19.80
2023-05-09T06:59:51.076Z,19.80
2023-05-09T07:02:17.825Z,19.80
2023-05-09T07:04:44.692Z,19.90
2023-05-09T07:07:11.443Z,20.00
2023-05-09T07:09:38.239Z,20.00
2023-05-09T07:12:05.288Z,20.10
2023-05-09T07:14:31.974Z,20.20
2023-05-09T07:17:13.867Z,20.20
2023-05-09T07:19:45.373Z,20.20
2023-05-09T07:22:13.589Z,20.20
2023-05-09T07:24:40.506Z,20.20
2023-05-09T07:27:07.325Z,20.30
2023-05-09T07:29:33.996Z,20.20
2023-05-09T07:32:00.782Z,20.20
2023-05-09T07:34:27.641Z,20.10
2023-05-09T07:36:54.330Z,20.00
2023-05-09T07:39:21.008Z,20.00
2023-05-09T07:41:48.790Z,20.00
2023-05-09T07:44:16.058Z,19.90
2023-05-09T07:46:43.019Z,19.80
2023-05-09T07:49:10.022Z,19.90
2023-05-09T07:51:36.793Z,20.00
2023-05-09T07:54:03.549Z,20.10
2023-05-09T07:56:30.484Z,20.10
2023-05-09T07:58:57.255Z,20.10
2023-05-09T08:01:24.337Z,20.00
2023-05-09T08:03:51.335Z,20.00
2023-05-09T08:06:18.112Z,20.00
2023-05-09T08:08:44.839Z,20.00
2023-05-09T08:11:11.570Z,20.10
2023-05-09T08:13:38.469Z,20.00
2023-05-09T08:16:05.892Z,20.20
2023-05-09T08:18:32.767Z,20.20
2023-05-09T08:20:59.807Z,20.20
2023-05-09T08:23:26.892Z,20.30
2023-05-09T08:25:54.665Z,20.30
2023-05-09T08:28:24.262Z,20.20
2023-05-09T08:30:51.687Z,20.30
2023-05-09T08:33:18.690Z,20.20
2023-05-09T08:35:45.630Z,20.20
2023-05-09T08:38:12.345Z,20.30
2023-05-09T08:40:40.962Z,20.30
2023-05-09T08:43:07.883Z,20.30
2023-05-09T08:46:01.002Z,20.30
2023-05-09T08:48:28.626Z,20.30
2023-05-09T08:50:56.154Z,20.30
2023-05-09T08:53:23.110Z,20.40
2023-05-09T08:55:50.241Z,20.50
2023-05-09T08:58:19.758Z,20.40
2023-05-09T09:00:47.473Z,20.50
2023-05-09T09:03:14.494Z,20.50
2023-05-09T09:05:42.585Z,20.80
2023-05-09T09:08:09.905Z,20.90
2023-05-09T09:10:39.480Z,20.90
2023-05-09T09:13:06.898Z,21.00
2023-05-09T09:15:37.703Z,21.10
2023-05-09T09:18:09.594Z,21.10
2023-05-09T09:20:40.695Z,21.20
2023-05-09T09:23:10.519Z,21.20
2023-05-09T09:25:37.653Z,21.30
2023-05-09T09:28:05.349Z,21.20
2023-05-09T09:30:32.625Z,21.20
2023-05-09T09:32:59.769Z,21.20
2023-05-09T09:35:26.838Z,21.30
2023-05-09T09:37:59.114Z,21.30
2023-05-09T09:40:26.774Z,21.20
2023-05-09T09:42:53.748Z,21.10
2023-05-09T09:45:20.903Z,21.10
2023-05-09T09:47:48.685Z,21.10
2023-05-09T09:50:19.554Z,21.10
2023-05-09T09:52:50.557Z,21.00
2023-05-09T09:55:18.740Z,21.00
2023-05-09T09:57:46.279Z,21.30
2023-05-09T10:00:13.904Z,21.30
2023-05-09T10:02:48.402Z,21.00
2023-05-09T10:05:21.609Z,21.00
2023-05-09T10:07:55.562Z,21.10
2023-05-09T10:10:22.827Z,21.20
2023-05-09T10:12:50.588Z,21.10
2023-05-09T10:15:21.796Z,21.10
2023-05-09T10:17:52.100Z,21.20
2023-05-09T10:20:19.132Z,21.30
2023-05-09T10:22:46.073Z,21.30
2023-05-09T10:25:16.162Z,21.40
2023-05-09T10:27:45.870Z,21.40
2023-05-09T10:30:22.336Z,21.40
2023-05-09T10:32:52.280Z,21.40
2023-05-09T10:35:20.424Z,21.40
2023-05-09T10:37:47.702Z,21.40
2023-05-09T10:40:15.242Z,21.30
2023-05-09T10:42:43.023Z,21.30
2023-05-09T10:45:10.858Z,21.40
2023-05-09T10:47:38.216Z,21.40
2023-05-09T10:50:05.634Z,21.30
2023-05-09T10:52:33.738Z,21.40
2023-05-09T10:55:01.779Z,21.40
2023-05-09T10:57:29.164Z,21.50
2023-05-09T10:59:56.907Z,21.50
2023-05-09T11:02:29.587Z,21.60
2023-05-09T11:05:15.656Z,21.50
2023-05-09T11:07:43.460Z,21.50
2023-05-09T11:10:10.306Z,21.50
2023-05-09T11:12:58.084Z,21.40
2023-05-09T11:15:26.593Z,21.30
2023-05-09T11:18:05.837Z,21.50
2023-05-09T11:20:35.885Z,21.50
2023-05-09T11:23:07.002Z,21.50
2023-05-09T11:25:33.776Z,21.40
2023-05-09T11:28:01.715Z,21.40
2023-05-09T11:30:48.749Z,21.40
2023-05-09T11:33:27.353Z,21.40
2023-05-09T11:36:14.179Z,21.60
2023-05-09T11:38:42.008Z,21.70
2023-05-09T11:41:09.070Z,21.70
2023-05-09T11:43:39.015Z,21.60
2023-05-09T11:46:06.480Z,21.60
2023-05-09T11:48:40.194Z,21.70
2023-05-09T11:51:07.570Z,21.60
2023-05-09T11:53:34.361Z,21.60
2023-05-09T11:56:04.678Z,21.60
2023-05-09T11:58:31.432Z,21.50
2023-05-09T12:00:58.597Z,21.60
2023-05-09T12:03:25.816Z,21.60
2023-05-09T12:05:54.046Z,21.50
2023-05-09T12:08:21.453Z,21.70
2023-05-09T12:10:48.255Z,21.70
2023-05-09T12:13:15.342Z,21.80
2023-05-09T12:15:44.838Z,21.60
2023-05-09T12:18:11.771Z,21.80
2023-05-09T12:20:41.568Z,21.90
2023-05-09T12:23:09.136Z,22.00
2023-05-09T12:25:36.042Z,21.90
2023-05-09T12:28:03.096Z,21.90
2023-05-09T12:30:29.977Z,22.00
2023-05-09T12:32:57.553Z,22.10
2023-05-09T12:35:27.082Z,22.10
2023-05-09T12:37:58.096Z,22.00
2023-05-09T12:40:25.353Z,21.80
2023-05-09T12:42:54.372Z,21.80
2023-05-09T12:45:21.325Z,21.90
2023-05-09T12:47:51.424Z,22.00
2023-05-09T12:50:18.195Z,21.80
2023-05-09T12:53:02.903Z,21.80
2023-05-09T12:55:31.267Z,21.80
2023-05-09T12:57:59.618Z,22.00
2023-05-09T13:00:26.418Z,21.90
2023-05-09T13:02:53.407Z,22.00
2023-05-09T13:05:21.247Z,22.00
2023-05-09T13:07:49.095Z,22.00
2023-05-09T13:10:16.007Z,22.00
2023-05-09T13:12:48.489Z,22.00
2023-05-09T13:15:16.437Z,21.90
2023-05-09T13:17:43.521Z,22.00
2023-05-09T13:20:10.859Z,22.00
2023-05-09T13:22:37.687Z,22.00
2023-05-09T13:25:05.002Z,21.90
2023-05-09T13:27:32.767Z,22.10
2023-05-09T13:29:59.848Z,22.10
2023-05-09T13:32:26.916Z,22.10
2023-05-09T13:34:53.695Z,22.00
2023-05-09T13:37:21.523Z,22.00
2023-05-09T13:39:48.620Z,21.90
2023-05-09T13:42:16.725Z,21.90
2023-05-09T13:44:44.565Z,22.20
2023-05-09T13:47:11.336Z,22.10
2023-05-09T13:49:38.617Z,22.20
2023-05-09T13:52:05.561Z,22.30
2023-05-09T13:54:35.233Z,22.20
2023-05-09T13:57:02.885Z,22.20
2023-05-09T13:59:30.272Z,22.30
2023-05-09T14:01:58.889Z,22.30
2023-05-09T14:04:29.103Z,22.30
2023-05-09T14:06:56.025Z,22.30
2023-05-09T14:09:23.173Z,22.30
2023-05-09T14:11:53.445Z,22.30
2023-05-09T14:14:21.019Z,22.30
2023-05-09T14:16:48.196Z,22.40
2023-05-09T14:19:18.137Z,22.50
2023-05-09T14:21:46.951Z,22.40
2023-05-09T14:24:16.347Z,22.30
2023-05-09T14:26:43.583Z,22.30
2023-05-09T14:29:10.416Z,22.30
2023-05-09T14:31:37.622Z,22.20
2023-05-09T14:34:05.416Z,22.30
2023-05-09T14:36:34.855Z,22.30
2023-05-09T14:39:01.685Z,22.40
2023-05-09T14:41:28.405Z,22.40
2023-05-09T14:43:55.118Z,22.50
2023-05-09T14:46:22.828Z,22.40
2023-05-09T14:48:49.695Z,22.30
2023-05-09T14:51:16.747Z,22.40
2023-05-09T14:53:43.648Z,22.30
2023-05-09T14:56:11.722Z,22.30
2023-05-09T14:58:38.548Z,22.20
2023-05-09T15:01:05.631Z,22.40
2023-05-09T15:03:32.731Z,22.40
2023-05-09T15:05:59.625Z,22.30
2023-05-09T15:08:26.797Z,22.30
2023-05-09T15:10:53.696Z,22.20
2023-05-09T15:13:20.985Z,22.20
2023-05-09T15:15:47.908Z,22.10
2023-05-09T15:18:16.689Z,22.10
2023-05-09T15:20:43.490Z,22.10
2023-05-09T15:23:10.831Z,22.10
2023-05-09T15:25:37.746Z,22.20
2023-05-09T15:28:04.596Z,22.20
2023-05-09T15:30:31.354Z,22.20
2023-05-09T15:32:59.442Z,22.20
2023-05-09T15:35:26.845Z,22.20
2023-05-09T15:37:53.562Z,22.10
2023-05-09T15:40:20.310Z,22.20
2023-05-09T15:42:48.327Z,22.20
2023-05-09T15:45:15.785Z,22.30
2023-05-09T15:47:42.639Z,22.30
2023-05-09T15:50:10.017Z,22.20
2023-05-09T15:52:36.821Z,22.20
2023-05-09T15:55:03.896Z,22.20
2023-05-09T15:57:30.695Z,22.20
2023-05-09T15:59:57.512Z,22.00
2023-05-09T16:02:24.954Z,21.90
2023-05-09T16:04:51.683Z,21.80
2023-05-09T16:07:20.467Z,21.80
2023-05-09T16:09:47.495Z,21.70
2023-05-09T16:12:14.605Z,21.60
2023-05-09T16:14:41.513Z,21.60
2023-05-09T16:17:08.383Z,21.60
2023-05-09T16:19:36.245Z,21.50
2023-05-09T16:22:03.319Z,21.50
2023-05-09T16:24:31.851Z,21.50
2023-05-09T16:26:58.686Z,21.50
2023-05-09T16:29:27.345Z,21.50
2023-05-09T16:31:54.196Z,21.40
2023-05-09T16:34:21.024Z,21.40
2023-05-09T16:36:47.871Z,21.40
2023-05-09T16:39:15.420Z,21.40
2023-05-09T16:41:42.148Z,21.30
2023-05-09T16:44:09.098Z,21.30
2023-05-09T16:46:35.865Z,21.30
2023-05-09T16:49:02.594Z,21.30
2023-05-09T16:51:29.314Z,21.30
2023-05-09T16:53:56.236Z,21.30
2023-05-09T16:56:23.390Z,21.30
2023-05-09T16:58:50.142Z,21.30
2023-05-09T17:01:17.083Z,21.30
2023-05-09T17:03:43.810Z,21.30
2023-05-09T17:06:10.598Z,21.30
2023-05-09T17:08:37.471Z,21.20
2023-05-09T17:11:05.452Z,21.20
2023-05-09T17:13:32.171Z,21.20
2023-05-09T17:15:59.098Z,21.20
2023-05-09T17:18:37.009Z,21.20
2023-05-09T17:21:04.812Z,21.20
2023-05-09T17:23:31.915Z,21.20
2023-05-09T17:25:58.752Z,21.20
2023-05-09T17:28:25.587Z,21.20
2023-05-09T17:30:52.568Z,21.20
2023-05-09T17:33:19.381Z,21.20
2023-05-09T17:35:49.597Z,21.20
2023-05-09T17:38:16.789Z,21.20
2023-05-09T17:40:44.298Z,21.20
2023-05-09T17:43:11.468Z,21.20
2023-05-09T17:45:38.169Z,21.20
2023-05-09T17:48:04.936Z,21.20
2023-05-09T17:50:31.764Z,21.20
2023-05-09T17:52:58.643Z,21.10
2023-05-09T17:55:25.434Z,21.10
2023-05-09T17:57:52.389Z,21.10
2023-05-09T18:00:19.748Z,21.10
2023-05-09T18:02:48.229Z,21.10
2023-05-09T18:05:15.179Z,21.10
2023-05-09T18:07:41.897Z,21.10
2023-05-09T18:10:09.333Z,21.10
2023-05-09T18:12:37.374Z,21.10
2023-05-09T18:15:04.878Z,21.10
2023-05-09T18:17:31.892Z,21.10
2023-05-09T18:19:59.082Z,21.10
2023-05-09T18:22:26.055Z,21.10
2023-05-09T18:24:52.974Z,21.10
2023-05-09T18:27:19.740Z,21.10
2023-05-09T18:29:47.531Z,21.00
2023-05-09T18:32:14.382Z,21.00
2023-05-09T18:34:41.280Z,21.00
2023-05-09T18:37:08.071Z,21.00
2023-05-09T18:39:34.780Z,21.00
2023-05-09T18:42:01.744Z,21.00
2023-05-09T18:44:29.358Z,21.00
2023-05-09T18:46:57.948Z,21.00
2023-05-09T18:49:27.542Z,21.00
2023-05-09T18:51:55.118Z,21.00
2023-05-09T18:54:21.894Z,21.00
2023-05-09T18:56:49.665Z,21.00
2023-05-09T18:59:17.357Z,21.00
2023-05-09T19:01:44.157Z,21.00
2023-05-09T19:04:11.191Z,21.00
2023-05-09T19:06:38.147Z,21.00
2023-05-09T19:09:05.661Z,21.00
2023-05-09T19:11:32.536Z,21.00
2023-05-09T19:13:59.376Z,21.00
2023-05-09T19:16:26.687Z,21.00
2023-05-09T19:18:57.300Z,21.00
2023-05-09T19:21:24.281Z,20.90
2023-05-09T19:23:51.178Z,21.00
2023-05-09T19:26:18.379Z,21.00
2023-05-09T19:28:46.320Z,21.00
2023-05-09T19:31:13.741Z,21.00
2023-05-09T19:33:41.220Z,21.00
2023-05-09T19:36:07.935Z,20.90
2023-05-09T19:38:35.157Z,21.00
2023-05-09T19:41:02.214Z,20.90
2023-05-09T19:43:28.964Z,21.00
2023-05-09T19:45:55.708Z,20.90
2023-05-09T19:48:22.583Z,20.90
2023-05-09T19:50:49.343Z,20.90
2023-05-09T19:53:16.251Z,20.90
2023-05-09T19:55:46.907Z,20.90
2023-05-09T19:58:17.469Z,20.90
2023-05-09T20:00:44.630Z,20.90
2023-05-09T20:03:11.545Z,20.90
2023-05-09T20:08:22.611Z,20.90
2023-05-09T20:10:49.274Z,20.90
2023-05-09T20:13:16.131Z,20.90
2023-05-09T20:15:42.975Z,20.90
2023-05-09T20:18:09.798Z,20.90
2023-05-09T20:20:37.336Z,20.90
2023-05-09T20:23:04.246Z,20.90
2023-05-09T20:25:31.109Z,20.90
2023-05-09T20:27:57.805Z,20.90
2023-05-09T20:30:24.559Z,20.90
2023-05-09T20:32:51.746Z,20.90
2023-05-09T20:35:18.572Z,20.90
2023-05-09T20:37:45.573Z,20.90
2023-05-09T20:40:13.782Z,20.90
2023-05-09T20:42:40.910Z,20.90
2023-05-09T20:45:08.349Z,20.90
2023-05-09T20:47:35.538Z,20.90
2023-05-09T20:50:02.297Z,20.90
2023-05-09T20:52:29.304Z,20.90
2023-05-09T20:54:56.205Z,20.90
2023-05-09T20:57:22.905Z,20.90
2023-05-09T20:59:49.885Z,20.90
2023-05-09T21:02:16.739Z,20.80
2023-05-09T21:04:43.570Z,20.80
2023-05-09T21:07:12.007Z,20.90
2023-05-09T21:09:38.818Z,20.80
2023-05-09T21:12:05.834Z,20.90
2023-05-09T21:14:32.778Z,20.80
2023-05-09T21:16:59.791Z,20.80
2023-05-09T21:19:27.588Z,20.80
2023-05-09T21:21:54.760Z,20.80
2023-05-09T21:24:21.440Z,20.80
2023-05-09T21:26:48.114Z,20.80
2023-05-09T21:29:15.047Z,20.80
2023-05-09T21:31:41.848Z,20.80
2023-05-09T21:34:10.380Z,20.80
2023-05-09T21:36:38.563Z,20.80
2023-05-09T21:39:09.023Z,20.80
2023-05-09T21:41:36.725Z,20.80
2023-05-09T21:44:03.699Z,20.80
2023-05-09T21:46:34.535Z,20.80
2023-05-09T21:49:01.742Z,20.80
2023-05-09T21:51:29.146Z,20.80
2023-05-09T21:53:55.990Z,20.80
2023-05-09T21:56:22.891Z,20.80
2023-05-09T21:58:49.712Z,20.70
2023-05-09T22:01:16.847Z,20.80
2023-05-09T22:03:43.925Z,20.70
2023-05-09T22:06:12.187Z,20.70
2023-05-09T22:08:39.157Z,20.70
2023-05-09T22:11:06.041Z,20.70
2023-05-09T22:13:32.998Z,20.70
2023-05-09T22:15:59.915Z,20.70
2023-05-09T22:18:26.629Z,20.70
2023-05-09T22:20:53.485Z,20.70
2023-05-09T22:23:20.612Z,20.70
2023-05-09T22:25:47.438Z,20.70
2023-05-09T22:28:14.244Z,20.70
2023-05-09T22:30:40.968Z,20.70
2023-05-09T22:33:07.772Z,20.70
2023-05-09T22:35:34.722Z,20.70
2023-05-09T22:38:01.430Z,20.70
2023-05-09T22:40:28.819Z,20.70
2023-05-09T22:42:55.720Z,20.80
2023-05-09T22:45:23.175Z,20.70
2023-05-09T22:47:50.013Z,20.70
2023-05-09T22:50:17.219Z,20.80
2023-05-09T22:52:44.061Z,20.70
2023-05-09T22:55:11.374Z,20.70
2023-05-09T22:57:38.410Z,20.70
2023-05-09T23:00:06.137Z,20.70
2023-05-09T23:02:33.032Z,20.70
2023-05-09T23:05:00.159Z,20.70
2023-05-09T23:07:26.884Z,20.70
2023-05-09T23:09:53.613Z,20.70
2023-05-09T23:12:20.543Z,20.70
2023-05-09T23:14:47.257Z,20.70
2023-05-09T23:17:14.038Z,20.70
2023-05-09T23:19:40.968Z,20.70
2023-05-09T23:22:07.805Z,20.60
2023-05-09T23:24:34.851Z,20.70
2023-05-09T23:27:02.765Z,20.70
2023-05-09T23:29:29.455Z,20.70
2023-05-09T23:31:56.534Z,20.60
2023-05-09T23:34:23.260Z,20.60
2023-05-09T23:36:49.977Z,20.60
2023-05-09T23:39:17.105Z,20.60
2023-05-09T23:41:43.878Z,20.60
2023-05-09T23:44:11.143Z,20.60
2023-05-09T23:46:37.878Z,20.60
2023-05-09T23:49:04.746Z,20.60
2023-05-09T23:51:31.871Z,20.60
2023-05-09T23:53:58.598Z,20.60
2023-05-09T23:56:25.373Z,20.60
2023-05-09T23:58:52.079Z,20.70
